createdAt,value
2019-04-21T00:00:33.566Z,101255.47
2019-04-21T00:03:25.619Z,101249.41
2019-04-21T00:06:29.829Z,101252.42
2019-04-21T00:09:24.279Z,101244.22
2019-04-21T00:12:07.522Z,101236.41
2019-04-21T00:14:47.158Z,101230.34
2019-04-21T00:17:24.443Z,101217.79
2019-04-21T00:20:20.422Z,101219.94
2019-04-21T00:23:13.117Z,101219.94
2019-04-21T00:25:57.652Z,101227.73
2019-04-21T00:28:59.599Z,101220.37
2019-04-21T00:31:38.153Z,101216.95
2019-04-21T00:34:09.115Z,101223.42
2019-04-21T00:37:08.320Z,101221.28
2019-04-21T00:40:03.736Z,101215.30
2019-04-21T00:42:48.436Z,101216.16
2019-04-21T00:45:36.466Z,101209.23
2019-04-21T00:48:32.923Z,101212.30
2019-04-21T00:54:09.797Z,101197.59
2019-04-21T00:56:56.940Z,101194.13
2019-04-21T00:59:41.983Z,101192.87
2019-04-21T01:02:32.993Z,101191.14
2019-04-21T01:05:37.531Z,101191.58
2019-04-21T01:08:05.110Z,101182.06
2019-04-21T01:10:43.979Z,101181.20
2019-04-21T01:13:44.027Z,101180.80
2019-04-21T01:16:33.158Z,101183.82
2019-04-21T01:19:12.368Z,101181.66
2019-04-21T01:21:42.310Z,101178.22
2019-04-21T01:24:33.035Z,101173.44
2019-04-21T01:27:25.076Z,101167.83
2019-04-21T01:30:26.541Z,101163.50
2019-04-21T01:33:17.395Z,101166.09
2019-04-21T01:35:58.069Z,101156.58
2019-04-21T01:38:58.401Z,101154.44
2019-04-21T01:41:38.914Z,101158.75
2019-04-21T01:44:29.906Z,101154.84
2019-04-21T01:47:06.047Z,101150.96
2019-04-21T01:49:50.069Z,101146.64
2019-04-21T01:52:50.241Z,101158.34
2019-04-21T01:55:54.981Z,101150.52
2019-04-21T01:58:42.817Z,101147.95
2019-04-21T02:01:48.857Z,101142.77
2019-04-21T02:04:30.386Z,101135.86
2019-04-21T02:07:14.840Z,101143.19
2019-04-21T02:10:05.253Z,101137.56
2019-04-21T02:12:51.891Z,101130.23
2019-04-21T02:15:59.353Z,101128.51
2019-04-21T02:18:22.023Z,101126.33
2019-04-21T02:21:00.385Z,101123.33
2019-04-21T02:24:07.152Z,101124.63
2019-04-21T02:26:45.687Z,101125.02
2019-04-21T02:29:40.666Z,101121.59
2019-04-21T02:32:35.710Z,101118.52
2019-04-21T02:35:34.115Z,101123.69
2019-04-21T02:38:11.796Z,101128.00
2019-04-21T02:40:51.370Z,101123.27
2019-04-21T02:43:46.139Z,101126.29
2019-04-21T02:46:42.112Z,101115.91
2019-04-21T02:52:11.649Z,101107.68
2019-04-21T02:55:01.205Z,101102.05
2019-04-21T03:00:36.541Z,101099.89
2019-04-21T03:03:36.302Z,101095.16
2019-04-21T03:06:50.340Z,101088.22
2019-04-21T03:09:30.978Z,101086.08
2019-04-21T03:15:25.169Z,101078.31
2019-04-21T03:17:59.670Z,101080.00
2019-04-21T03:23:36.360Z,101076.09
2019-04-21T03:29:11.934Z,101067.02
2019-04-21T03:32:14.315Z,101060.55
2019-04-21T03:37:35.400Z,101052.39
2019-04-21T03:40:26.541Z,101046.36
2019-04-21T03:43:04.418Z,101043.34
2019-04-21T03:48:46.793Z,101042.48
2019-04-21T03:51:25.990Z,101040.32
2019-04-21T04:00:00.799Z,101043.34
2019-04-21T04:03:12.963Z,101046.81
2019-04-21T04:09:03.144Z,101039.89
2019-04-21T04:11:50.434Z,101040.30
2019-04-21T04:14:33.469Z,101043.75
2019-04-21T04:17:16.871Z,101045.92
2019-04-21T04:20:25.833Z,101029.94
2019-04-21T04:25:27.414Z,101026.50
2019-04-21T04:28:38.411Z,101027.37
2019-04-21T04:31:25.464Z,101026.94
2019-04-21T04:34:24.787Z,101025.62
2019-04-21T04:37:15.206Z,101030.83
2019-04-21T04:43:03.535Z,101034.69
2019-04-21T04:48:11.116Z,101032.53
2019-04-21T04:51:22.973Z,101031.24
2019-04-21T04:53:47.258Z,101030.37
2019-04-21T04:56:38.919Z,101030.80
2019-04-21T05:05:13.806Z,101023.49
2019-04-21T05:08:08.489Z,101018.73
2019-04-21T05:10:54.461Z,101023.92
2019-04-21T05:13:26.158Z,101026.09
2019-04-21T05:16:27.824Z,101020.45
2019-04-21T05:19:18.122Z,101020.89
2019-04-21T05:21:45.478Z,101022.66
2019-04-21T05:24:30.325Z,101028.27
2019-04-21T05:27:29.409Z,101027.81
2019-04-21T05:30:49.023Z,101022.63
2019-04-21T05:33:39.983Z,101023.05
2019-04-21T05:36:52.121Z,101022.59
2019-04-21T05:39:45.154Z,101009.91
2019-04-21T05:42:30.469Z,101017.13
2019-04-21T05:45:25.467Z,101011.56
2019-04-21T05:48:33.048Z,101017.49
2019-04-21T05:51:10.634Z,101012.09
2019-04-21T05:54:08.801Z,101010.03
2019-04-21T05:56:48.833Z,101010.13
2019-04-21T05:59:40.058Z,101007.88
2019-04-21T06:02:24.251Z,101009.53
2019-04-21T06:08:02.783Z,101004.06
2019-04-21T06:13:42.796Z,101006.09
2019-04-21T06:16:28.658Z,101009.94
2019-04-21T06:19:17.144Z,101004.69
2019-04-21T06:21:57.439Z,101008.86
2019-04-21T06:25:18.685Z,101009.91
2019-04-21T06:27:34.083Z,101001.52
2019-04-21T06:30:24.006Z,101002.39
2019-04-21T06:33:08.153Z,101002.41
2019-04-21T06:39:11.320Z,101000.16
2019-04-21T06:41:54.383Z,100987.63
2019-04-21T06:44:53.745Z,100994.94
2019-04-21T06:47:39.458Z,100991.95
2019-04-21T06:50:24.346Z,100990.81
2019-04-21T06:53:06.822Z,100997.67
2019-04-21T06:55:55.980Z,100985.19
2019-04-21T06:58:43.968Z,100991.84
2019-04-21T07:01:36.800Z,100987.38
2019-04-21T07:07:04.832Z,100994.16
2019-04-21T07:09:57.531Z,100985.91
2019-04-21T07:12:43.014Z,100988.09
2019-04-21T07:15:35.739Z,100991.45
2019-04-21T07:18:20.269Z,100987.67
2019-04-21T07:21:06.503Z,100994.13
2019-04-21T07:23:59.132Z,100990.09
2019-04-21T07:26:42.646Z,100986.73
2019-04-21T07:29:34.836Z,100985.10
2019-04-21T07:32:15.333Z,100983.22
2019-04-21T07:35:09.667Z,100985.94
2019-04-21T07:37:53.517Z,100987.05
2019-04-21T07:40:36.542Z,100987.59
2019-04-21T07:43:22.159Z,100983.09
2019-04-21T07:46:06.491Z,100983.97
2019-04-21T07:49:06.566Z,100984.27
2019-04-21T07:52:26.131Z,100981.81
2019-04-21T07:57:52.887Z,100980.20
2019-04-21T08:03:34.966Z,100969.29
2019-04-21T08:06:24.124Z,100975.06
2019-04-21T08:09:07.428Z,100977.41
2019-04-21T08:11:48.666Z,100975.22
2019-04-21T08:14:43.929Z,100966.17
2019-04-21T08:17:30.796Z,100967.86
2019-04-21T08:20:12.265Z,100966.38
2019-04-21T08:23:04.706Z,100958.44
2019-04-21T08:26:03.756Z,100963.33
2019-04-21T08:28:42.661Z,100961.28
2019-04-21T08:31:34.385Z,100959.20
2019-04-21T08:34:21.526Z,100956.59
2019-04-21T08:37:04.034Z,100950.74
2019-04-21T08:40:04.945Z,100956.75
2019-04-21T08:42:39.969Z,100948.78
2019-04-21T08:45:29.430Z,100949.09
2019-04-21T08:48:16.955Z,100941.78
2019-04-21T08:51:14.185Z,100946.98
2019-04-21T08:53:56.460Z,100940.69
2019-04-21T08:57:05.496Z,100943.34
2019-04-21T09:00:06.499Z,100937.22
2019-04-21T09:03:02.540Z,100936.38
2019-04-21T09:05:42.421Z,100935.73
2019-04-21T09:08:37.641Z,100936.37
2019-04-21T09:11:17.613Z,100927.88
2019-04-21T09:14:13.159Z,100932.47
2019-04-21T09:16:56.738Z,100926.17
2019-04-21T09:22:35.837Z,100919.41
2019-04-21T09:25:28.626Z,100915.28
2019-04-21T09:28:16.034Z,100911.66
2019-04-21T09:30:49.953Z,100914.97
2019-04-21T09:33:33.456Z,100907.80
2019-04-21T09:36:19.934Z,100902.69
2019-04-21T09:39:16.572Z,100903.05
2019-04-21T09:42:02.763Z,100897.25
2019-04-21T09:44:51.964Z,100894.34
2019-04-21T09:47:45.977Z,100891.78
2019-04-21T09:50:24.195Z,100890.80
2019-04-21T09:53:16.703Z,100889.01
2019-04-21T09:56:04.882Z,100884.08
2019-04-21T09:58:52.180Z,100880.89
2019-04-21T10:01:50.103Z,100881.13
2019-04-21T10:04:23.528Z,100872.44
2019-04-21T10:07:21.910Z,100870.64
2019-04-21T10:09:59.904Z,100870.00
2019-04-21T10:12:56.278Z,100869.62
2019-04-21T10:15:44.173Z,100860.56
2019-04-21T10:18:33.704Z,100863.42
2019-04-21T10:21:20.107Z,100852.56
2019-04-21T10:24:06.362Z,100851.16
2019-04-21T10:26:53.379Z,100846.05
2019-04-21T10:29:43.105Z,100851.53
2019-04-21T10:32:36.444Z,100842.33
2019-04-21T10:35:35.460Z,100835.55
2019-04-21T10:38:30.405Z,100837.13
2019-04-21T10:41:10.048Z,100824.98
2019-04-21T10:44:00.992Z,100824.45
2019-04-21T10:46:48.944Z,100816.89
2019-04-21T10:49:35.019Z,100815.80
2019-04-21T10:52:30.960Z,100799.09
2019-04-21T10:55:32.097Z,100803.75
2019-04-21T10:58:26.516Z,100801.23
2019-04-21T11:01:31.490Z,100803.09
2019-04-21T11:04:33.737Z,100794.36
2019-04-21T11:08:05.160Z,100788.12
2019-04-21T11:10:41.286Z,100785.11
2019-04-21T11:13:32.634Z,100790.59
2019-04-21T11:16:19.471Z,100777.99
2019-04-21T11:19:06.295Z,100779.06
2019-04-21T11:22:04.956Z,100772.36
2019-04-21T11:25:05.203Z,100770.05
2019-04-21T11:27:51.384Z,100759.23
2019-04-21T11:30:38.023Z,100756.77
2019-04-21T11:33:24.895Z,100752.66
2019-04-21T11:36:11.273Z,100752.98
2019-04-21T11:39:14.907Z,100746.83
2019-04-21T11:41:50.295Z,100745.83
2019-04-21T11:44:37.216Z,100746.95
2019-04-21T11:47:28.026Z,100742.91
2019-04-21T11:50:15.074Z,100735.95
2019-04-21T11:53:01.204Z,100735.84
2019-04-21T11:55:50.157Z,100729.76
2019-04-21T11:58:39.508Z,100730.63
2019-04-21T12:01:25.789Z,100726.64
2019-04-21T12:04:13.912Z,100728.57
2019-04-21T12:06:59.944Z,100724.24
2019-04-21T12:09:46.018Z,100714.31
2019-04-21T12:12:31.471Z,100717.96
2019-04-21T12:15:17.188Z,100717.81
2019-04-21T12:18:05.915Z,100703.34
2019-04-21T12:20:53.629Z,100702.08
2019-04-21T12:23:45.687Z,100694.20
2019-04-21T12:26:33.853Z,100691.95
2019-04-21T12:29:20.819Z,100694.30
2019-04-21T12:32:26.329Z,100696.61
2019-04-21T12:35:13.148Z,100687.76
2019-04-21T12:38:02.650Z,100681.56
2019-04-21T12:40:50.778Z,100679.12
2019-04-21T12:43:38.948Z,100677.11
2019-04-21T12:46:31.870Z,100676.52
2019-04-21T12:49:17.930Z,100668.75
2019-04-21T12:52:38.200Z,100670.94
2019-04-21T12:55:30.622Z,100658.98
2019-04-21T12:58:13.101Z,100658.34
2019-04-21T13:01:03.079Z,100650.64
2019-04-21T13:03:52.953Z,100638.64
2019-04-21T13:06:39.456Z,100644.03
2019-04-21T13:09:28.456Z,100639.31
2019-04-21T13:12:13.131Z,100630.98
2019-04-21T13:15:06.533Z,100618.94
2019-04-21T13:17:52.496Z,100614.14
2019-04-21T13:20:38.274Z,100613.29
2019-04-21T13:23:24.959Z,100602.31
2019-04-21T13:26:13.086Z,100602.69
2019-04-21T13:28:58.963Z,100597.18
2019-04-21T13:31:47.963Z,100585.42
2019-04-21T13:34:35.805Z,100585.42
2019-04-21T13:37:25.658Z,100584.14
2019-04-21T13:40:56.942Z,100591.86
2019-04-21T13:43:33.044Z,100582.74
2019-04-21T13:46:18.481Z,100578.30
2019-04-21T13:49:05.254Z,100576.97
2019-04-21T13:51:51.986Z,100562.48
2019-04-21T13:54:39.877Z,100565.18
2019-04-21T13:57:26.307Z,100556.23
2019-04-21T14:00:13.432Z,100556.23
2019-04-21T14:03:00.731Z,100554.19
2019-04-21T14:05:48.514Z,100553.41
2019-04-21T14:08:34.424Z,100538.32
2019-04-21T14:11:19.936Z,100538.69
2019-04-21T14:14:06.087Z,100537.69
2019-04-21T14:16:52.100Z,100532.98
2019-04-21T14:19:41.540Z,100528.08
2019-04-21T14:22:28.314Z,100520.23
2019-04-21T14:25:15.385Z,100530.88
2019-04-21T14:28:04.005Z,100523.78
2019-04-21T14:30:50.468Z,100512.59
2019-04-21T14:33:36.321Z,100507.20
2019-04-21T14:36:23.072Z,100507.84
2019-04-21T14:39:10.581Z,100500.16
2019-04-21T14:41:56.453Z,100498.66
2019-04-21T14:44:42.965Z,100496.36
2019-04-21T14:47:46.270Z,100496.36
2019-04-21T14:50:52.478Z,100490.86
2019-04-21T14:53:59.767Z,100488.08
2019-04-21T14:56:47.300Z,100491.45
2019-04-21T14:59:37.185Z,100483.56
2019-04-21T15:02:25.532Z,100473.78
2019-04-21T15:05:13.402Z,100470.11
2019-04-21T15:08:01.358Z,100470.11
2019-04-21T15:10:47.490Z,100469.50
2019-04-21T15:13:33.482Z,100463.83
2019-04-21T15:16:20.758Z,100469.27
2019-04-21T15:19:06.867Z,100457.87
2019-04-21T15:21:52.443Z,100462.52
2019-04-21T15:24:40.433Z,100459.43
2019-04-21T15:27:27.486Z,100458.62
2019-04-21T15:30:14.414Z,100459.72
2019-04-21T15:33:06.373Z,100443.70
2019-04-21T15:35:55.382Z,100449.83
2019-04-21T15:38:45.724Z,100441.05
2019-04-21T15:41:36.501Z,100434.81
2019-04-21T15:44:23.236Z,100435.75
2019-04-21T15:47:10.244Z,100429.20
2019-04-21T15:50:04.657Z,100428.77
2019-04-21T15:52:45.656Z,100424.48
2019-04-21T15:55:41.267Z,100412.75
2019-04-21T15:59:02.240Z,100416.97
2019-04-21T16:02:00.846Z,100418.45
2019-04-21T16:04:48.599Z,100419.50
2019-04-21T16:07:36.058Z,100407.19
2019-04-21T16:10:34.350Z,100409.59
2019-04-21T16:13:11.817Z,100408.92
2019-04-21T16:15:58.693Z,100409.96
2019-04-21T16:18:45.980Z,100402.69
2019-04-21T16:21:36.700Z,100399.20
2019-04-21T16:24:21.252Z,100396.35
2019-04-21T16:27:10.726Z,100394.38
2019-04-21T16:29:57.632Z,100389.75
2019-04-21T16:32:43.997Z,100392.95
2019-04-21T16:35:31.692Z,100385.11
2019-04-21T16:38:19.620Z,100387.03
2019-04-21T16:41:09.193Z,100385.30
2019-04-21T16:43:59.087Z,100378.42
2019-04-21T16:46:45.452Z,100378.88
2019-04-21T16:49:31.810Z,100376.06
2019-04-21T16:52:38.386Z,100369.84
2019-04-21T16:55:30.782Z,100367.69
2019-04-21T16:58:40.924Z,100369.83
2019-04-21T17:01:31.274Z,100360.43
2019-04-21T17:04:18.157Z,100361.95
2019-04-21T17:07:05.184Z,100360.16
2019-04-21T17:09:52.624Z,100356.02
2019-04-21T17:12:39.537Z,100352.59
2019-04-21T17:15:51.797Z,100346.75
2019-04-21T17:18:43.517Z,100343.15
2019-04-21T17:21:19.256Z,100344.66
2019-04-21T17:24:10.612Z,100343.50
2019-04-21T17:27:00.904Z,100339.10
2019-04-21T17:29:48.630Z,100340.62
2019-04-21T17:32:38.773Z,100335.58
2019-04-21T17:35:22.874Z,100335.53
2019-04-21T17:38:10.274Z,100332.13
2019-04-21T17:41:09.377Z,100331.49
2019-04-21T17:43:43.893Z,100326.34
2019-04-21T17:46:38.900Z,100322.73
2019-04-21T17:49:18.866Z,100322.20
2019-04-21T17:52:36.677Z,100322.37
2019-04-21T17:55:27.295Z,100320.53
2019-04-21T17:58:22.086Z,100314.26
2019-04-21T18:01:20.994Z,100318.22
2019-04-21T18:04:14.016Z,100325.84
2019-04-21T18:06:59.649Z,100329.08
2019-04-21T18:10:00.155Z,100318.20
2019-04-21T18:12:38.806Z,100318.37
2019-04-21T18:15:29.105Z,100314.66
2019-04-21T18:18:00.965Z,100319.52
2019-04-21T18:20:54.988Z,100317.52
2019-04-21T18:23:53.001Z,100317.39
2019-04-21T18:26:41.728Z,100314.42
2019-04-21T18:29:23.467Z,100320.15
2019-04-21T18:32:10.467Z,100318.37
2019-04-21T18:35:30.199Z,100320.68
2019-04-21T18:38:24.364Z,100321.83
2019-04-21T18:41:05.688Z,100320.30
2019-04-21T18:44:21.277Z,100322.30
2019-04-21T18:47:31.527Z,100321.25
2019-04-21T18:50:19.549Z,100317.30
2019-04-21T18:53:24.042Z,100323.30
2019-04-21T18:56:05.297Z,100325.07
2019-04-21T18:58:48.239Z,100334.34
2019-04-21T19:01:36.680Z,100335.58
2019-04-21T19:04:28.577Z,100337.28
2019-04-21T19:07:25.519Z,100331.16
2019-04-21T19:10:21.986Z,100334.00
2019-04-21T19:13:28.244Z,100339.66
2019-04-21T19:16:19.243Z,100334.46
2019-04-21T19:19:18.493Z,100341.30
2019-04-21T19:21:24.532Z,100340.56
2019-04-21T19:24:26.322Z,100336.97
2019-04-21T19:27:11.722Z,100336.13
2019-04-21T19:30:08.563Z,100343.08
2019-04-21T19:32:41.300Z,100335.99
2019-04-21T19:35:14.912Z,100345.20
2019-04-21T19:38:08.158Z,100342.45
2019-04-21T19:41:07.494Z,100338.31
2019-04-21T19:43:57.887Z,100339.89
2019-04-21T19:46:38.295Z,100338.77
2019-04-21T19:49:36.776Z,100338.77
2019-04-21T19:52:11.002Z,100344.68
2019-04-21T19:54:52.577Z,100333.34
2019-04-21T19:57:38.882Z,100331.63
2019-04-21T20:00:26.679Z,100329.75
2019-04-21T20:03:14.522Z,100324.34
2019-04-21T20:06:10.778Z,100323.04
2019-04-21T20:09:08.380Z,100319.92
2019-04-21T20:11:50.069Z,100321.14
2019-04-21T20:17:35.009Z,100319.59
2019-04-21T20:20:04.017Z,100317.94
2019-04-21T20:22:51.916Z,100315.55
2019-04-21T20:25:45.706Z,100312.54
2019-04-21T20:28:38.823Z,100311.80
2019-04-21T20:31:29.218Z,100309.84
2019-04-21T20:34:30.331Z,100312.46
2019-04-21T20:37:07.775Z,100308.39
2019-04-21T20:39:48.277Z,100306.91
2019-04-21T20:42:42.794Z,100310.09
2019-04-21T20:45:34.514Z,100310.91
2019-04-21T20:48:15.309Z,100304.53
2019-04-21T20:51:24.002Z,100304.54
2019-04-21T20:53:53.712Z,100306.70
2019-04-21T20:56:45.241Z,100302.22
2019-04-21T20:59:28.679Z,100302.44
2019-04-21T21:02:19.978Z,100304.20
2019-04-21T21:05:00.611Z,100303.19
2019-04-21T21:08:03.563Z,100306.52
2019-04-21T21:10:45.804Z,100305.16
2019-04-21T21:13:37.860Z,100300.57
2019-04-21T21:16:30.770Z,100295.66
2019-04-21T21:19:18.149Z,100294.10
2019-04-21T21:21:56.360Z,100293.80
2019-04-21T21:24:46.350Z,100298.27
2019-04-21T21:27:31.913Z,100289.62
2019-04-21T21:30:18.651Z,100286.54
2019-04-21T21:33:15.345Z,100291.91
2019-04-21T21:35:56.629Z,100285.66
2019-04-21T21:38:50.016Z,100285.95
2019-04-21T21:41:24.445Z,100285.10
2019-04-21T21:44:09.185Z,100287.45
2019-04-21T21:47:00.566Z,100287.64
2019-04-21T21:49:53.765Z,100283.10
2019-04-21T21:52:39.963Z,100279.50
2019-04-21T21:55:15.928Z,100278.30
2019-04-21T21:58:07.931Z,100276.77
2019-04-21T22:00:58.575Z,100285.91
2019-04-21T22:03:46.538Z,100280.20
2019-04-21T22:06:44.636Z,100277.13
2019-04-21T22:09:19.972Z,100272.73
2019-04-21T22:12:07.215Z,100267.73
2019-04-21T22:14:55.542Z,100273.09
2019-04-21T22:17:54.301Z,100270.20
2019-04-21T22:20:48.594Z,100265.64
2019-04-21T22:23:29.481Z,100267.09
2019-04-21T22:26:05.434Z,100270.09
2019-04-21T22:28:51.840Z,100273.11
2019-04-21T22:31:40.762Z,100269.51
2019-04-21T22:34:30.241Z,100269.19
2019-04-21T22:37:30.717Z,100267.23
2019-04-21T22:40:13.743Z,100268.27
2019-04-21T22:42:59.290Z,100265.12
2019-04-21T22:45:37.600Z,100268.34
2019-04-21T22:48:28.272Z,100259.98
2019-04-21T22:51:20.491Z,100262.07
2019-04-21T22:54:01.431Z,100267.42
2019-04-21T22:56:56.813Z,100264.98
2019-04-21T22:59:35.650Z,100265.43
2019-04-21T23:02:28.577Z,100261.16
2019-04-21T23:05:15.609Z,100266.69
2019-04-21T23:08:03.102Z,100265.51
2019-04-21T23:10:49.684Z,100266.77
2019-04-21T23:13:36.283Z,100260.05
2019-04-21T23:16:28.022Z,100264.52
2019-04-21T23:19:19.982Z,100260.29
2019-04-21T23:22:17.314Z,100264.47
2019-04-21T23:25:03.421Z,100259.49
2019-04-21T23:27:55.133Z,100259.08
2019-04-21T23:30:45.925Z,100246.55
2019-04-21T23:33:12.044Z,100246.33
2019-04-21T23:36:03.674Z,100252.77
2019-04-21T23:38:47.254Z,100241.89
2019-04-21T23:41:37.329Z,100236.23
2019-04-21T23:44:20.387Z,100237.58
2019-04-21T23:47:10.229Z,100237.20
2019-04-21T23:50:03.711Z,100229.99
2019-04-21T23:52:41.741Z,100230.84
2019-04-21T23:55:27.526Z,100227.13
2019-04-21T23:58:21.387Z,100224.94
